Terminal Aerodrome Forecast
Issued by NWS Wakefield, VA

Home | Current Version | Previous Version | Text Only | Print | Product List | Glossary On
Versions: 1 2 3 4 5 6 7 8 9 10 11 12 13 14 15 16 17 18 19 20
000
FTUS41 KAKQ 201138
TAFECG
TAF
KECG 201138Z 2012/2112 13004KT P6SM BKN070
     FM201800 13008KT P6SM VCSH OVC040
     FM202300 06004KT P6SM OVC030
     FM210200 00000KT 4SM -DZ BR BKN025
     FM210700 VRB03KT 2SM -DZ BR BKN005=

USA.gov is the U.S. government's official web portal to all federal, state and local government web resources and services.